Map

Track Data

SID SEASON NUMBER BASIN SUBBASIN NAME ISO_TIME NATURE LAT LON WMO_WIND WMO_PRES WMO_AGENCY TRACK_TYPE DIST2LAND LANDFALL IFLAG USA_AGENCY USA_ATCF_ID USA_LAT USA_LON USA_RECORD USA_STATUS USA_WIND USA_PRES USA_SSHS USA_R34_NE USA_R34_SE USA_R34_SW USA_R34_NW USA_R50_NE USA_R50_SE USA_R50_SW USA_R50_NW USA_R64_NE USA_R64_SE USA_R64_SW USA_R64_NW USA_POCI USA_ROCI USA_RMW USA_EYE TOKYO_LAT TOKYO_LON TOKYO_GRADE TOKYO_WIND TOKYO_PRES TOKYO_R50_DIR TOKYO_R50_LONG TOKYO_R50_SHORT TOKYO_R30_DIR TOKYO_R30_LONG TOKYO_R30_SHORT TOKYO_LAND CMA_LAT CMA_LON CMA_CAT CMA_WIND CMA_PRES HKO_LAT HKO_LON HKO_CAT HKO_WIND HKO_PRES NEWDELHI_LAT NEWDELHI_LON NEWDELHI_GRADE NEWDELHI_WIND NEWDELHI_PRES NEWDELHI_CI NEWDELHI_DP NEWDELHI_POCI REUNION_LAT REUNION_LON REUNION_TYPE REUNION_WIND REUNION_PRES REUNION_TNUM REUNION_CI REUNION_RMW REUNION_R34_NE REUNION_R34_SE REUNION_R34_SW REUNION_R34_NW REUNION_R50_NE REUNION_R50_SE REUNION_R50_SW REUNION_R50_NW REUNION_R64_NE REUNION_R64_SE REUNION_R64_SW REUNION_R64_NW BOM_LAT BOM_LON BOM_TYPE BOM_WIND BOM_PRES BOM_TNUM BOM_CI BOM_RMW BOM_R34_NE BOM_R34_SE BOM_R34_SW BOM_R34_NW BOM_R50_NE BOM_R50_SE BOM_R50_SW BOM_R50_NW BOM_R64_NE BOM_R64_SE BOM_R64_SW BOM_R64_NW BOM_ROCI BOM_POCI BOM_EYE BOM_POS_METHOD BOM_PRES_METHOD NADI_LAT NADI_LON NADI_CAT NADI_WIND NADI_PRES WELLINGTON_LAT WELLINGTON_LON WELLINGTON_WIND WELLINGTON_PRES DS824_LAT DS824_LON DS824_STAGE DS824_WIND DS824_PRES TD9636_LAT TD9636_LON TD9636_STAGE TD9636_WIND TD9636_PRES TD9635_LAT TD9635_LON TD9635_WIND TD9635_PRES TD9635_ROCI NEUMANN_LAT NEUMANN_LON NEUMANN_CLASS NEUMANN_WIND NEUMANN_PRES MLC_LAT MLC_LON MLC_CLASS MLC_WIND MLC_PRES USA_GUST BOM_GUST BOM_GUST_PER REUNION_GUST REUNION_GUST_PER USA_SEAHGT USA_SEARAD_NE USA_SEARAD_SE USA_SEARAD_SW USA_SEARAD_NW STORM_SPEED STORM_DIR
1983243N12259 1983 54 EP MM KIKO 1983-08-31 06:00:00 TS 11.9000 -101.300 25 hurdat_epa main 564 557 O_________O___ hurdat_epa EP111983 11.9000 -101.300 TD 25 -1 11.9000 -101.300 1 25 5 306
1983243N12259 1983 54 EP MM KIKO 1983-08-31 09:00:00 TS 12.0517 -101.510 main 550 543 P_________P___ EP111983 12.0525 -101.510 TD 27 -1 12.0492 -101.508 1 27 5 308
1983243N12259 1983 54 EP MM KIKO 1983-08-31 12:00:00 TS 12.2000 -101.700 30 hurdat_epa main 547 541 O_________O___ hurdat_epa EP111983 12.2000 -101.700 TD 30 -1 12.2000 -101.700 1 30 5 311
1983243N12259 1983 54 EP MM KIKO 1983-08-31 15:00:00 TS 12.3456 -101.859 main 546 531 P_________P___ EP111983 12.3425 -101.858 TD 32 -1 12.3549 -101.863 1 32 4 316
1983243N12259 1983 54 EP MM KIKO 1983-08-31 18:00:00 TS 12.5048 -102.002 35 hurdat_epa main 531 516 O_________P___ hurdat_epa EP111983 12.5000 -102.000 TS 35 0 12.5192 -102.007 1 35 4 321
1983243N12259 1983 54 EP MM KIKO 1983-08-31 21:00:00 TS 12.6885 -102.144 main 516 507 P_________P___ EP111983 12.6850 -102.143 TS 37 0 12.6989 -102.148 1 37 5 324
1983243N12259 1983 54 EP MM KIKO 1983-09-01 00:00:00 TS 12.9000 -102.300 40 hurdat_epa main 507 490 O_________O___ hurdat_epa EP111983 12.9000 -102.300 TS 40 0 12.9000 -102.300 2 40 6 323
1983243N12259 1983 54 EP MM KIKO 1983-09-01 03:00:00 TS 13.1365 -102.488 main 493 469 P_________P___ EP111983 13.1425 -102.493 TS 42 0 13.1184 -102.475 2 43 6 322
1983243N12259 1983 54 EP MM KIKO 1983-09-01 06:00:00 TS 13.3898 -102.692 45 hurdat_epa main 469 452 O_________P___ hurdat_epa EP111983 13.4000 -102.700 TS 45 0 13.3590 -102.666 2 47 6 322
1983243N12259 1983 54 EP MM KIKO 1983-09-01 09:00:00 TS 13.6369 -102.888 main 456 436 P_________P___ EP111983 13.6425 -102.893 TS 50 0 13.6201 -102.874 2 51 6 322
1983243N12259 1983 54 EP MM KIKO 1983-09-01 12:00:00 TS 13.9000 -103.100 55 hurdat_epa main 436 419 O_________O___ hurdat_epa EP111983 13.9000 -103.100 TS 55 0 13.9000 -103.100 2 55 7 322
1983243N12259 1983 54 EP MM KIKO 1983-09-01 15:00:00 TS 14.2008 -103.336 main 419 405 P_________P___ EP111983 14.2000 -103.335 TS 77 1 14.2032 -103.337 2 77 8 321
1983243N12259 1983 54 EP MM KIKO 1983-09-01 18:00:00 TS 14.5000 -103.600 100 hurdat_epa main 405 390 O_________O___ hurdat_epa EP111983 14.5000 -103.600 HU 100 3 14.5000 -103.600 3 100 8 316
1983243N12259 1983 54 EP MM KIKO 1983-09-01 21:00:00 TS 14.7633 -103.892 main 384 369 P_________P___ EP111983 14.7650 -103.893 HU 107 3 14.7581 -103.892 3 107 8 311
1983243N12259 1983 54 EP MM KIKO 1983-09-02 00:00:00 TS 15.0000 -104.200 115 hurdat_epa main 373 359 O_________O___ hurdat_epa EP111983 15.0000 -104.200 HU 115 4 15.0000 -104.200 4 115 7 307
1983243N12259 1983 54 EP MM KIKO 1983-09-02 03:00:00 TS 15.2060 -104.500 main 362 348 P_________P___ EP111983 15.1925 -104.500 HU 115 4 15.2465 -104.500 4 115 7 306
1983243N12259 1983 54 EP MM KIKO 1983-09-02 06:00:00 TS 15.4233 -104.800 115 hurdat_epa main 352 337 O_________P___ hurdat_epa EP111983 15.4000 -104.800 HU 115 4 15.4931 -104.800 4 115 8 310
1983243N12259 1983 54 EP MM KIKO 1983-09-02 09:00:00 TS 15.6995 -105.100 main 337 327 P_________P___ EP111983 15.6850 -105.100 HU 115 4 15.7431 -105.100 4 115 8 315
1983243N12259 1983 54 EP MM KIKO 1983-09-02 12:00:00 TS 16.0000 -105.400 115 hurdat_epa main 327 323 O_________O___ hurdat_epa EP111983 16.0000 -105.400 HU 115 4 16.0000 -105.400 4 115 8 316
1983243N12259 1983 54 EP MM KIKO 1983-09-02 15:00:00 TS 16.2975 -105.702 main 323 317 P_________P___ EP111983 16.3075 -105.700 HU 115 4 16.2678 -105.708 4 115 8 315
1983243N12259 1983 54 EP MM KIKO 1983-09-02 18:00:00 TS 16.5856 -106.004 115 hurdat_epa main 317 306 O_________P___ hurdat_epa EP111983 16.6000 -106.000 HU 115 4 16.5424 -106.015 4 115 8 313
1983243N12259 1983 54 EP MM KIKO 1983-09-02 21:00:00 TS 16.8427 -106.315 main 311 298 P_________P___ EP111983 16.8500 -106.315 HU 115 4 16.8209 -106.314 4 115 8 312
1983243N12259 1983 54 EP MM KIKO 1983-09-03 00:00:00 TS 17.1000 -106.600 115 hurdat_epa main 302 291 O_________O___ hurdat_epa EP111983 17.1000 -106.600 HU 115 4 17.1000 -106.600 4 115 7 319
1983243N12259 1983 54 EP MM KIKO 1983-09-03 03:00:00 TS 17.3925 -106.811 main 291 283 P_________P___ EP111983 17.3999 -106.800 HU 115 4 17.3705 -106.845 4 116 7 326
1983243N12259 1983 54 EP MM KIKO 1983-09-03 06:00:00 TS 17.6855 -107.020 115 hurdat_epa main 283 283 O_________P___ hurdat_epa EP111983 17.7000 -107.000 HU 115 4 17.6419 -107.078 4 117 7 320
1983243N12259 1983 54 EP MM KIKO 1983-09-03 09:00:00 TS 17.9362 -107.283 main 291 283 P_________P___ EP111983 17.9424 -107.270 HU 117 4 17.9174 -107.323 4 118 8 313
1983243N12259 1983 54 EP MM KIKO 1983-09-03 12:00:00 TS 18.2000 -107.600 120 hurdat_epa main 294 294 O_________O___ hurdat_epa EP111983 18.2000 -107.600 HU 120 4 18.2000 -107.600 4 120 9 312
1983243N12259 1983 54 EP MM KIKO 1983-09-03 15:00:00 TS 18.5398 -107.977 main 311 305 P_________P___ EP111983 18.5500 -107.992 HU 122 4 18.5090 -107.931 4 121 10 313
1983243N12259 1983 54 EP MM KIKO 1983-09-03 18:00:00 TS 18.8806 -108.374 125 hurdat_epa main 328 328 O_________P___ hurdat_epa EP111983 18.9000 -108.400 HU 125 4 18.8224 -108.297 4 122 9 311
1983243N12259 1983 54 EP MM KIKO 1983-09-03 21:00:00 TS 19.1491 -108.730 main 345 341 P_________P___ EP111983 19.1573 -108.743 HU 125 4 19.1246 -108.690 4 123 9 307
1983243N12259 1983 54 EP MM KIKO 1983-09-04 00:00:00 TS 19.4000 -109.100 125 hurdat_epa main 372 359 O_________O___ hurdat_epa EP111983 19.4000 -109.100 HU 125 4 19.4000 -109.100 4 125 9 306
1983243N12259 1983 54 EP MM KIKO 1983-09-04 03:00:00 TS 19.7022 -109.538 main 359 324 P_________P___ EP111983 19.7225 -109.542 HU 120 4 19.6410 -109.527 4 121 10 304
1983243N12259 1983 54 EP MM KIKO 1983-09-04 06:00:00 TS 19.9632 -109.991 115 hurdat_epa main 324 313 O_________P___ hurdat_epa EP111983 20.0000 -110.000 HU 115 4 19.8527 -109.965 4 117 9 296
1983243N12259 1983 54 EP MM KIKO 1983-09-04 09:00:00 TS 20.1013 -110.410 main 315 308 P_________P___ EP111983 20.1224 -110.415 HU 112 3 20.0379 -110.396 4 113 8 287
1983243N12259 1983 54 EP MM KIKO 1983-09-04 12:00:00 TS 20.2000 -110.800 110 hurdat_epa main 313 305 O_________O___ hurdat_epa EP111983 20.2000 -110.800 HU 110 3 20.2000 -110.800 4 110 8 289
1983243N12259 1983 54 EP MM KIKO 1983-09-04 15:00:00 TS 20.3510 -111.163 main 305 304 P_________P___ EP111983 20.3499 -111.165 HU 112 3 20.3542 -111.158 4 107 7 294
1983243N12259 1983 54 EP MM KIKO 1983-09-04 18:00:00 TS 20.4967 -111.497 115 hurdat_epa main 309 305 O_________P___ hurdat_epa EP111983 20.5000 -111.500 HU 115 4 20.4870 -111.488 4 105 6 293
1983243N12259 1983 54 EP MM KIKO 1983-09-04 21:00:00 TS 20.6058 -111.794 main 317 314 P_________P___ EP111983 20.6073 -111.793 HU 107 3 20.6012 -111.799 4 102 6 290
1983243N12259 1983 54 EP MM KIKO 1983-09-05 00:00:00 TS 20.7000 -112.100 100 hurdat_epa main 327 327 O_________O___ hurdat_epa EP111983 20.7000 -112.100 HU 100 3 20.7000 -112.100 4 100 7 287
1983243N12259 1983 54 EP MM KIKO 1983-09-05 03:00:00 TS 20.8010 -112.489 main 348 348 P_________P___ EP111983 20.8077 -112.515 HU 97 3 20.7811 -112.412 4 97 7 285
1983243N12259 1983 54 EP MM KIKO 1983-09-05 06:00:00 TS 20.8874 -112.854 95 hurdat_epa main 373 373 O_________P___ hurdat_epa EP111983 20.9000 -112.900 HU 95 2 20.8498 -112.715 4 95 6 284
1983243N12259 1983 54 EP MM KIKO 1983-09-05 09:00:00 TS 20.9420 -113.095 main 390 383 P_________P___ EP111983 20.9498 -113.123 HU 92 2 20.9186 -113.012 4 92 4 285
1983243N12259 1983 54 EP MM KIKO 1983-09-05 12:00:00 TS 21.0000 -113.300 90 hurdat_epa main 401 401 O_________O___ hurdat_epa EP111983 21.0000 -113.300 HU 90 2 21.0000 -113.300 4 90 4 289
1983243N12259 1983 54 EP MM KIKO 1983-09-05 15:00:00 TS 21.0913 -113.548 main 413 413 P_________P___ EP111983 21.0850 -113.535 HU 90 2 21.1105 -113.586 4 90 5 293
1983243N12259 1983 54 EP MM KIKO 1983-09-05 18:00:00 TS 21.2087 -113.816 90 hurdat_epa main 421 417 O_________P___ hurdat_epa EP111983 21.2000 -113.800 HU 90 2 21.2348 -113.865 4 90 6 297
1983243N12259 1983 54 EP MM KIKO 1983-09-05 21:00:00 TS 21.3542 -114.109 main 418 418 P_________P___ EP111983 21.3500 -114.100 HU 90 2 21.3667 -114.136 4 90 6 298
1983243N12259 1983 54 EP MM KIKO 1983-09-06 00:00:00 TS 21.5000 -114.400 90 hurdat_epa main 428 424 O_________O___ hurdat_epa EP111983 21.5000 -114.400 HU 90 2 21.5000 -114.400 4 90 6 296
1983243N12259 1983 54 EP MM KIKO 1983-09-06 03:00:00 TS 21.6082 -114.657 main 436 434 P_________P___ EP111983 21.5999 -114.658 HU 85 2 21.6329 -114.653 4 85 5 295
1983243N12259 1983 54 EP MM KIKO 1983-09-06 06:00:00 TS 21.7162 -114.900 80 hurdat_epa main 440 437 O_________P___ hurdat_epa EP111983 21.7000 -114.900 HU 80 1 21.7647 -114.900 4 80 5 299
1983243N12259 1983 54 EP MM KIKO 1983-09-06 09:00:00 TS 21.8597 -115.144 main 437 437 P_________P___ EP111983 21.8499 -115.143 HU 75 1 21.8892 -115.147 4 75 5 301
1983243N12259 1983 54 EP MM KIKO 1983-09-06 12:00:00 TS 22.0000 -115.400 70 hurdat_epa main 452 451 O_________O___ hurdat_epa EP111983 22.0000 -115.400 HU 70 1 22.0000 -115.400 4 70 6 296
1983243N12259 1983 54 EP MM KIKO 1983-09-06 15:00:00 TS 22.1096 -115.691 main 467 467 P_________P___ EP111983 22.1150 -115.700 HU 67 1 22.0933 -115.664 4 68 6 290
1983243N12259 1983 54 EP MM KIKO 1983-09-06 18:00:00 TS 22.1931 -115.984 65 hurdat_epa main 484 484 O_________P___ hurdat_epa EP111983 22.2000 -116.000 HU 65 1 22.1723 -115.935 4 67 5 286
1983243N12259 1983 54 EP MM KIKO 1983-09-06 21:00:00 TS 22.2531 -116.241 main 494 494 P_________P___ EP111983 22.2574 -116.250 HU 65 1 22.2402 -116.214 4 66 5 283
1983243N12259 1983 54 EP MM KIKO 1983-09-07 00:00:00 TS 22.3000 -116.500 65 hurdat_epa main 519 519 O_________O___ hurdat_epa EP111983 22.3000 -116.500 HU 65 1 22.3000 -116.500 4 65 5 281
1983243N12259 1983 54 EP MM KIKO 1983-09-07 03:00:00 TS 22.3498 -116.798 main 545 539 P_________P___ EP111983 22.3500 -116.793 HU 62 0 22.3492 -116.813 4 62 6 280
1983243N12259 1983 54 EP MM KIKO 1983-09-07 06:00:00 TS 22.3982 -117.108 60 hurdat_epa main 566 566 O_________P___ hurdat_epa EP111983 22.4000 -117.100 TS 60 0 22.3927 -117.130 4 60 6 279
1983243N12259 1983 54 EP MM KIKO 1983-09-07 09:00:00 TS 22.4419 -117.419 main 593 593 P_________P___ EP111983 22.4425 -117.415 TS 57 0 22.4398 -117.432 4 57 6 281
1983243N12259 1983 54 EP MM KIKO 1983-09-07 12:00:00 TS 22.5000 -117.700 55 hurdat_epa main 616 616 O_________O___ hurdat_epa EP111983 22.5000 -117.700 TS 55 0 22.5000 -117.700 2 55 5 287
1983243N12259 1983 54 EP MM KIKO 1983-09-07 15:00:00 TS 22.5866 -117.918 main 623 619 P_________P___ EP111983 22.5924 -117.923 TS 52 0 22.5690 -117.903 2 52 4 297
1983243N12259 1983 54 EP MM KIKO 1983-09-07 18:00:00 TS 22.6886 -118.093 50 hurdat_epa main 625 622 O_________P___ hurdat_epa EP111983 22.7000 -118.100 TS 50 0 22.6545 -118.073 2 50 4 303
1983243N12259 1983 54 EP MM KIKO 1983-09-07 21:00:00 TS 22.7794 -118.234 main 622 620 P_________P___ EP111983 22.7849 -118.235 TS 47 0 22.7628 -118.231 2 47 4 307
1983243N12259 1983 54 EP MM KIKO 1983-09-08 00:00:00 TS 22.9000 -118.400 45 hurdat_epa main 626 623 O_________O___ hurdat_epa EP111983 22.9000 -118.400 TS 45 0 22.9000 -118.400 2 45 5 306
1983243N12259 1983 54 EP MM KIKO 1983-09-08 03:00:00 TS 23.0766 -118.681 main 629 627 P_________P___ EP111983 23.0852 -118.700 TS 42 0 23.0511 -118.623 2 42 6 306
1983243N12259 1983 54 EP MM KIKO 1983-09-08 06:00:00 TS 23.2832 -118.964 40 hurdat_epa main 634 623 O_________P___ hurdat_epa EP111983 23.3000 -119.000 TS 40 0 23.2327 -118.857 2 40 6 313
1983243N12259 1983 54 EP MM KIKO 1983-09-08 09:00:00 TS 23.4756 -119.146 main 623 620 P_________P___ EP111983 23.4849 -119.165 TS 37 0 23.4479 -119.088 2 37 5 323
1983243N12259 1983 54 EP MM KIKO 1983-09-08 12:00:00 TS 23.7000 -119.300 35 hurdat_epa main 620 610 O_________O___ hurdat_epa EP111983 23.7000 -119.300 TS 35 0 23.7000 -119.300 2 35 6 327
1983243N12259 1983 54 EP MM KIKO 1983-09-08 15:00:00 TS 23.9806 -119.501 main 610 603 P_________P___ EP111983 23.9776 -119.507 TS 32 -1 23.9899 -119.480 2 32 7 330
1983243N12259 1983 54 EP MM KIKO 1983-09-08 18:00:00 TS 24.3025 -119.684 30 hurdat_epa main 603 589 O_________P___ hurdat_epa EP111983 24.3000 -119.700 TD 30 -1 24.3099 -119.635 2 30 7 337
1983243N12259 1983 54 EP MM KIKO 1983-09-08 21:00:00 TS 24.6462 -119.810 main 590 573 P_________P___ EP111983 24.6450 -119.823 TD 27 -1 24.6500 -119.771 2 27 7 344
1983243N12259 1983 54 EP MM KIKO 1983-09-09 00:00:00 TS 25.0000 -119.900 25 hurdat_epa main 573 O_________O___ hurdat_epa EP111983 25.0000 -119.900 TD 25 -1 25.0000 -119.900 1 25 7 347

About IBTrACS Database

This database is a web-friendly format of International Best Track Archive for Climate Stewardship (IBTrACS), a global best track data archive curated by NOAA dating back to 1842.

Updated: 2021-10-25